createdAt,value
2022-09-28T00:02:13.565Z,5.28
2022-09-28T00:07:17.089Z,6.85
2022-09-28T00:12:22.627Z,4.95
2022-09-28T00:17:26.613Z,4.55
2022-09-28T00:22:29.891Z,5.40
2022-09-28T00:27:34.598Z,6.63
2022-09-28T00:32:38.349Z,4.82
2022-09-28T00:37:41.677Z,7.90
2022-09-28T00:42:46.902Z,7.00
2022-09-28T00:47:52.569Z,7.00
2022-09-28T00:53:01.899Z,6.13
2022-09-28T00:58:08.930Z,4.90
2022-09-28T01:03:14.233Z,6.30
2022-09-28T01:08:21.128Z,5.63
2022-09-28T01:13:26.411Z,6.85
2022-09-28T01:18:38.350Z,6.15
2022-09-28T01:24:01.257Z,9.63
2022-09-28T01:29:13.226Z,5.88
2022-09-28T01:34:19.985Z,5.53
2022-09-28T01:39:29.793Z,5.60
2022-09-28T01:44:40.273Z,7.05
2022-09-28T01:49:47.208Z,7.13
2022-09-28T01:54:55.462Z,6.70
2022-09-28T02:00:04.043Z,9.98
2022-09-28T02:05:12.977Z,7.18
2022-09-28T02:10:21.094Z,6.90
2022-09-28T02:15:31.501Z,5.50
2022-09-28T02:20:37.655Z,5.47
2022-09-28T02:25:45.082Z,6.45
2022-09-28T02:30:49.909Z,6.60
2022-09-28T02:35:53.773Z,6.60
2022-09-28T02:41:05.323Z,6.72
2022-09-28T02:46:20.009Z,7.30
2022-09-28T02:51:31.785Z,6.72
2022-09-28T02:56:51.190Z,7.20
2022-09-28T03:02:03.062Z,5.65
2022-09-28T03:07:11.720Z,5.95
2022-09-28T03:12:19.290Z,7.50
2022-09-28T03:17:24.389Z,6.47
2022-09-28T03:22:28.186Z,7.10
2022-09-28T03:27:31.700Z,6.18
2022-09-28T03:32:36.392Z,5.97
2022-09-28T03:37:40.071Z,8.52
2022-09-28T03:42:43.928Z,7.55
2022-09-28T03:47:49.224Z,7.15
2022-09-28T03:52:52.669Z,7.82
2022-09-28T03:57:56.786Z,9.57
2022-09-28T04:03:01.854Z,7.43
2022-09-28T04:08:05.332Z,8.57
2022-09-28T04:13:08.954Z,8.63
2022-09-28T04:18:13.886Z,8.40
2022-09-28T04:23:17.310Z,7.95
2022-09-28T04:28:37.931Z,8.52
2022-09-28T04:33:42.613Z,6.30
2022-09-28T04:38:53.119Z,6.88
2022-09-28T04:43:57.393Z,7.95
2022-09-28T04:49:02.433Z,8.02
2022-09-28T04:54:06.078Z,7.03
2022-09-28T04:59:10.001Z,9.52
2022-09-28T05:04:14.909Z,8.20
2022-09-28T05:09:18.439Z,8.88
2022-09-28T05:14:22.892Z,8.07
2022-09-28T05:19:27.800Z,7.10
2022-09-28T05:24:32.322Z,7.85
2022-09-28T05:29:36.367Z,8.05
2022-09-28T05:34:41.116Z,6.57
2022-09-28T05:39:44.776Z,8.43
2022-09-28T05:44:48.067Z,8.38
2022-09-28T05:49:52.866Z,6.40
2022-09-28T05:54:56.123Z,6.50
2022-09-28T05:59:59.611Z,7.85
2022-09-28T06:05:04.406Z,6.32
2022-09-28T06:10:08.350Z,6.32
2022-09-28T06:20:44.895Z,9.30
2022-09-28T06:25:48.211Z,6.25
2022-09-28T06:30:52.172Z,4.53
2022-09-28T06:35:57.264Z,5.05
2022-09-28T06:41:01.198Z,7.22
2022-09-28T06:46:04.748Z,4.97
2022-09-28T06:51:09.537Z,5.82
2022-09-28T06:56:13.381Z,5.30
2022-09-28T07:01:16.886Z,6.03
2022-09-28T07:06:24.132Z,4.13
2022-09-28T07:11:29.086Z,4.63
2022-09-28T07:17:00.126Z,4.93
2022-09-28T07:22:04.731Z,5.55
2022-09-28T07:27:09.164Z,10.02
2022-09-28T07:32:12.495Z,3.78
2022-09-28T07:37:18.897Z,2.88
2022-09-28T07:42:22.927Z,4.28
2022-09-28T07:47:32.310Z,3.65
2022-09-28T07:52:39.873Z,3.53
2022-09-28T07:57:44.434Z,3.10
2022-09-28T08:02:48.373Z,3.55
2022-09-28T08:07:53.526Z,3.83
2022-09-28T08:12:59.270Z,2.67
2022-09-28T08:18:06.093Z,3.00
2022-09-28T08:23:11.370Z,3.08
2022-09-28T08:28:15.956Z,3.55
2022-09-28T08:33:21.319Z,2.58
2022-09-28T08:38:26.740Z,3.65
2022-09-28T08:43:51.297Z,2.50
2022-09-28T08:49:23.642Z,2.50
2022-09-28T08:54:34.512Z,4.40
2022-09-28T08:59:47.913Z,2.13
2022-09-28T09:04:52.696Z,2.53
2022-09-28T09:10:07.446Z,2.92
2022-09-28T09:15:48.194Z,3.05
2022-09-28T09:20:56.616Z,3.30
2022-09-28T09:26:07.222Z,1.95
2022-09-28T09:31:27.265Z,3.28
2022-09-28T09:36:42.073Z,1.65
2022-09-28T09:42:00.028Z,1.80
2022-09-28T09:47:08.846Z,1.77
2022-09-28T09:52:19.284Z,2.95
2022-09-28T09:57:30.492Z,1.15
2022-09-28T10:02:35.953Z,1.00
2022-09-28T10:07:44.599Z,1.10
2022-09-28T10:12:51.192Z,1.17
2022-09-28T10:17:56.153Z,1.85
2022-09-28T10:23:02.212Z,1.60
2022-09-28T10:28:08.728Z,0.95
2022-09-28T10:33:30.604Z,2.35
2022-09-28T10:38:35.287Z,0.80
2022-09-28T10:43:53.834Z,1.30
2022-09-28T10:49:02.940Z,2.50
2022-09-28T10:54:06.402Z,1.15
2022-09-28T10:59:38.098Z,1.27
2022-09-28T11:04:43.579Z,2.67
2022-09-28T11:09:49.653Z,3.83
2022-09-28T11:15:01.634Z,1.10
2022-09-28T11:20:34.578Z,1.83
2022-09-28T11:25:39.602Z,0.88
2022-09-28T11:30:48.386Z,4.70
2022-09-28T11:36:00.158Z,2.83
2022-09-28T11:41:18.347Z,1.00
2022-09-28T11:46:32.612Z,2.25
2022-09-28T11:51:39.038Z,2.30
2022-09-28T11:56:46.456Z,1.48
2022-09-28T12:01:54.386Z,3.47
2022-09-28T12:07:01.110Z,3.20
2022-09-28T12:12:12.056Z,2.33
2022-09-28T12:17:24.568Z,1.48
2022-09-28T12:22:34.014Z,2.45
2022-09-28T12:27:42.865Z,4.07
2022-09-28T12:32:51.653Z,2.30
2022-09-28T12:38:16.207Z,2.03
2022-09-28T12:43:34.112Z,3.30
2022-09-28T12:54:51.683Z,1.67
2022-09-28T13:00:03.914Z,1.98
2022-09-28T13:05:25.042Z,2.93
2022-09-28T13:10:34.958Z,2.60
2022-09-28T13:15:44.791Z,2.30
2022-09-28T13:21:05.428Z,1.52
2022-09-28T13:26:20.101Z,2.25
2022-09-28T13:31:31.862Z,0.90
2022-09-28T13:36:42.524Z,1.85
2022-09-28T13:41:50.641Z,3.53
2022-09-28T13:47:20.967Z,2.85
2022-09-28T13:52:40.964Z,2.67
2022-09-28T13:57:48.710Z,4.45
2022-09-28T14:02:58.842Z,5.07
2022-09-28T14:08:29.414Z,6.18
2022-09-28T14:14:06.160Z,5.93
2022-09-28T14:19:12.970Z,5.03
2022-09-28T14:24:47.174Z,5.47
2022-09-28T14:29:55.508Z,5.80
2022-09-28T14:35:02.370Z,4.10
2022-09-28T14:40:48.815Z,9.88
2022-09-28T14:46:33.198Z,7.10
2022-09-28T14:52:06.568Z,8.50
2022-09-28T14:57:18.457Z,5.00
2022-09-28T15:02:28.895Z,3.30
2022-09-28T15:07:46.099Z,2.50
2022-09-28T15:12:53.059Z,2.80
2022-09-28T15:18:06.102Z,4.38
2022-09-28T15:28:29.007Z,2.83
2022-09-28T15:33:51.620Z,5.10
2022-09-28T15:38:58.937Z,3.77
2022-09-28T15:44:15.878Z,3.75
2022-09-28T15:49:26.823Z,5.57
2022-09-28T15:54:34.882Z,3.80
2022-09-28T15:59:49.515Z,6.50
2022-09-28T16:04:58.752Z,6.65
2022-09-28T16:10:22.137Z,4.03
2022-09-28T16:20:35.627Z,3.13
2022-09-28T16:25:40.033Z,3.00
2022-09-28T16:31:01.327Z,3.78
2022-09-28T16:36:11.857Z,2.78
2022-09-28T16:41:16.305Z,4.95
2022-09-28T16:46:23.044Z,4.68
2022-09-28T16:51:26.382Z,5.50
2022-09-28T16:56:29.821Z,6.05
2022-09-28T17:01:35.327Z,4.80
2022-09-28T17:06:38.955Z,4.00
2022-09-28T17:11:42.338Z,3.97
2022-09-28T17:17:07.258Z,5.05
2022-09-28T17:22:10.568Z,4.10
2022-09-28T17:27:19.789Z,3.65
2022-09-28T17:32:24.682Z,4.53
2022-09-28T17:37:28.266Z,4.10
2022-09-28T17:42:31.565Z,3.95
2022-09-28T17:47:36.222Z,4.57
2022-09-28T17:52:39.511Z,5.60
2022-09-28T17:57:42.808Z,6.20
2022-09-28T18:02:47.877Z,8.25
2022-09-28T18:07:52.013Z,7.07
2022-09-28T18:12:55.281Z,9.65
2022-09-28T18:17:59.983Z,15.23
2022-09-28T18:23:03.347Z,17.30
2022-09-28T18:28:06.915Z,14.45
2022-09-28T18:33:12.811Z,7.10
2022-09-28T18:38:16.090Z,9.73
2022-09-28T18:43:19.409Z,8.35
2022-09-28T18:48:27.724Z,6.63
2022-09-28T18:53:34.768Z,6.75
2022-09-28T18:58:42.731Z,7.30
2022-09-28T19:03:47.835Z,6.25
2022-09-28T19:08:53.570Z,7.82
2022-09-28T19:14:00.272Z,8.63
2022-09-28T19:19:06.581Z,9.18
2022-09-28T19:24:13.219Z,9.52
2022-09-28T19:29:17.322Z,9.13
2022-09-28T19:34:24.336Z,11.40
2022-09-28T19:39:27.626Z,9.50
2022-09-28T19:44:32.369Z,10.20
2022-09-28T19:49:39.389Z,11.55
2022-09-28T19:54:44.751Z,11.38
2022-09-28T19:59:52.354Z,10.93
2022-09-28T20:04:57.490Z,14.15
2022-09-28T20:10:00.796Z,6.82
2022-09-28T20:15:05.239Z,10.25
2022-09-28T20:20:10.409Z,9.07
2022-09-28T20:25:14.173Z,10.35
2022-09-28T20:30:18.645Z,10.57
2022-09-28T20:35:32.614Z,11.40
2022-09-28T20:40:37.612Z,7.45
2022-09-28T20:45:40.908Z,6.97
2022-09-28T20:50:45.626Z,10.23
2022-09-28T20:55:48.887Z,8.00
2022-09-28T21:00:52.208Z,7.85
2022-09-28T21:05:56.881Z,9.25
2022-09-28T21:11:00.826Z,9.60
2022-09-28T21:16:05.559Z,17.25
2022-09-28T21:21:12.794Z,9.38
2022-09-28T21:26:24.592Z,7.03
2022-09-28T21:31:30.779Z,8.30
2022-09-28T21:36:35.751Z,6.47
2022-09-28T21:41:39.243Z,7.57
2022-09-28T21:46:42.818Z,6.75
2022-09-28T21:51:47.606Z,8.50
2022-09-28T21:56:50.971Z,11.68
2022-09-28T22:01:54.597Z,11.68
2022-09-28T22:06:59.758Z,7.35
2022-09-28T22:12:03.495Z,6.97
2022-09-28T22:17:06.751Z,5.43
2022-09-28T22:22:11.387Z,6.45
2022-09-28T22:27:15.494Z,7.93
2022-09-28T22:32:18.849Z,7.05
2022-09-28T22:37:23.632Z,12.18
2022-09-28T22:42:26.885Z,11.10
2022-09-28T22:47:30.453Z,11.13
2022-09-28T22:52:35.191Z,12.20
2022-09-28T22:57:38.494Z,7.22
2022-09-28T23:02:42.059Z,6.13
2022-09-28T23:07:47.517Z,6.43
2022-09-28T23:12:50.907Z,8.82
2022-09-28T23:17:54.483Z,6.20
2022-09-28T23:22:59.086Z,6.85
2022-09-28T23:28:02.625Z,6.95
2022-09-28T23:33:05.931Z,6.03
2022-09-28T23:38:13.520Z,6.00
2022-09-28T23:43:16.812Z,8.85
2022-09-28T23:48:20.134Z,8.60
2022-09-28T23:53:24.843Z,8.95
2022-09-28T23:58:28.633Z,8.07
